Time;durP1;ratioP1;P1;durP2;ratioP2;P2;SDS_P1;SDS_P2;PMS_P1;PMS_P2;Temp;Humidity;BMP_temperature;BMP_pressure;BME280_temperature;BME280_humidity;BME280_pressure;Samples;Min_cycle;Max_cycle;Signal;HPM_P1;HPM_P2
2023/07/10 00:01:00;;;;;;;4.78;2.88;;;;;;;22.07;60.41;101897.06;5024737;28;20100;-78
2023/07/10 00:03:28;;;;;;;5.53;2.67;;;;;;;22.07;59.74;101894.38;5019302;28;20115;-79
2023/07/10 00:05:54;;;;;;;5.78;3.13;;;;;;;22.07;60.90;101902.44;5029243;28;20461;-78
2023/07/10 00:08:19;;;;;;;8.55;3.13;;;;;;;22.09;59.64;101911.28;5026205;28;20033;-78
2023/07/10 00:10:45;;;;;;;6.15;3.03;;;;;;;22.12;59.92;101901.19;5044486;28;20033;-78
2023/07/10 00:13:12;;;;;;;5.85;3.80;;;;;;;22.05;59.84;101896.28;5018808;28;20029;-78
2023/07/10 00:15:37;;;;;;;8.98;2.95;;;;;;;22.02;60.64;101912.69;5033991;28;20032;-78
2023/07/10 00:18:08;;;;;;;7.38;2.92;;;;;;;22.03;60.20;101917.09;5022219;28;20084;-78
2023/07/10 00:20:34;;;;;;;5.15;2.72;;;;;;;22.11;59.48;101898.56;5026139;28;20462;-78
2023/07/10 00:22:59;;;;;;;6.63;2.78;;;;;;;22.10;59.64;101905.78;5024220;28;20036;-79
2023/07/10 00:25:24;;;;;;;6.43;2.67;;;;;;;22.12;60.22;101922.72;5023951;28;20413;-79
2023/07/10 00:27:49;;;;;;;6.70;2.60;;;;;;;22.01;60.76;101922.59;5022281;28;20033;-79
2023/07/10 00:30:22;;;;;;;7.60;3.22;;;;;;;21.91;61.80;101914.28;5026084;28;20033;-79
2023/07/10 00:32:52;;;;;;;7.30;3.22;;;;;;;21.81;63.74;101906.97;5029753;28;20437;-79
2023/07/10 00:35:22;;;;;;;7.35;3.20;;;;;;;21.77;62.35;101906.34;5026511;28;20057;-79
2023/07/10 00:38:00;;;;;;;7.03;3.75;;;;;;;21.72;64.10;101903.09;5035429;28;20029;-78
2023/07/10 00:40:26;;;;;;;6.88;3.83;;;;;;;21.57;64.12;101901.50;5024449;28;20077;-78
2023/07/10 00:42:57;;;;;;;7.72;3.25;;;;;;;21.50;64.87;101898.38;5029823;28;20108;-78
2023/07/10 00:45:23;;;;;;;8.77;3.67;;;;;;;21.54;64.00;101891.81;5027491;28;20756;-78
2023/07/10 00:47:59;;;;;;;4.80;3.25;;;;;;;21.54;64.23;101899.00;5023349;28;20048;-79
2023/07/10 00:50:34;;;;;;;8.10;3.63;;;;;;;21.52;64.53;101914.41;5024580;28;20059;-78
2023/07/10 00:53:04;;;;;;;6.68;3.38;;;;;;;21.48;66.36;101918.28;5017845;28;20428;-79
2023/07/10 00:55:31;;;;;;;5.15;3.13;;;;;;;21.38;65.59;101918.91;5028818;28;20025;-78
2023/07/10 00:58:21;;;;;;;7.28;2.83;;;;;;;21.35;64.20;101923.63;5017879;28;20052;-79
2023/07/10 01:00:59;;;;;;;5.07;2.80;;;;;;;21.37;63.67;101919.03;5024664;28;20041;-78
2023/07/10 01:03:25;;;;;;;7.40;2.67;;;;;;;21.25;63.64;101920.66;5030053;28;20029;-79
2023/07/10 01:05:50;;;;;;;7.68;2.65;;;;;;;21.28;63.99;101922.31;5027154;28;20025;-79
2023/07/10 01:08:16;;;;;;;5.20;2.75;;;;;;;21.33;63.91;101904.06;5022582;28;20029;-78
2023/07/10 01:10:41;;;;;;;5.40;2.80;;;;;;;21.34;63.52;101901.25;5020255;28;20025;-78
2023/07/10 01:13:06;;;;;;;6.70;2.63;;;;;;;21.29;64.72;101900.66;5022217;28;20018;-79
2023/07/10 01:15:31;;;;;;;5.72;3.38;;;;;;;21.27;64.97;101904.44;5026930;28;20563;-79
2023/07/10 01:17:58;;;;;;;4.07;2.88;;;;;;;21.22;65.00;101904.75;5034411;28;20021;-79
2023/07/10 01:20:48;;;;;;;9.23;3.13;;;;;;;21.27;63.20;101908.00;5022407;28;20413;-79
2023/07/10 01:23:13;;;;;;;6.05;2.70;;;;;;;21.16;63.22;101915.91;5020143;28;20026;-79
2023/07/10 01:25:45;;;;;;;6.68;2.88;;;;;;;21.15;63.96;101927.66;5020468;28;20053;-79
2023/07/10 01:28:15;;;;;;;3.78;2.78;;;;;;;21.17;63.28;101916.78;5039956;28;20056;-79
2023/07/10 01:30:43;;;;;;;4.60;2.42;;;;;;;21.12;63.36;101922.47;5024643;28;20121;-79
2023/07/10 01:33:13;;;;;;;4.13;2.30;;;;;;;21.12;63.01;101917.97;5023019;28;20040;-79
2023/07/10 01:35:41;;;;;;;4.05;2.30;;;;;;;21.09;64.42;101909.25;5029500;28;20029;-79
2023/07/10 01:38:11;;;;;;;4.82;2.83;;;;;;;21.01;65.92;101908.91;5021973;28;20028;-79
2023/07/10 01:40:39;;;;;;;6.65;2.20;;;;;;;21.02;63.32;101902.53;5019600;28;20053;-79
2023/07/10 01:43:04;;;;;;;4.78;2.78;;;;;;;20.98;64.29;101899.19;5017043;28;20034;-79
2023/07/10 01:45:41;;;;;;;4.57;2.20;;;;;;;21.04;64.79;101904.19;5025855;28;20022;-79
2023/07/10 01:48:06;;;;;;;4.68;2.33;;;;;;;20.86;65.51;101906.25;5021387;28;20075;-79
2023/07/10 01:50:31;;;;;;;5.55;2.80;;;;;;;20.73;65.59;101909.88;5027509;28;20516;-79
2023/07/10 01:52:56;;;;;;;7.55;2.47;;;;;;;20.52;66.85;101915.69;5026916;28;20497;-79
2023/07/10 01:55:24;;;;;;;6.40;2.63;;;;;;;20.50;66.26;101922.13;5023110;28;20025;-79
2023/07/10 01:57:50;;;;;;;6.00;2.97;;;;;;;20.55;66.22;101928.03;5026224;28;20025;-79
2023/07/10 02:00:15;;;;;;;4.97;2.47;;;;;;;20.56;66.27;101911.84;5028454;28;20049;-79
2023/07/10 02:02:41;;;;;;;4.82;2.17;;;;;;;20.67;65.58;101908.44;5029000;28;20027;-79
2023/07/10 02:05:06;;;;;;;4.78;2.38;;;;;;;20.56;65.96;101905.59;5033849;28;20033;-79
2023/07/10 02:07:32;;;;;;;4.63;2.03;;;;;;;20.28;67.36;101907.34;5028189;28;20120;-79
2023/07/10 02:09:57;;;;;;;8.70;3.00;;;;;;;20.14;67.46;101910.03;5016187;28;20254;-79
2023/07/10 02:12:22;;;;;;;9.50;2.90;;;;;;;20.15;68.09;101910.94;5026832;28;20033;-79
2023/07/10 02:14:47;;;;;;;9.98;3.50;;;;;;;19.99;68.29;101911.00;5023740;28;20191;-79
2023/07/10 02:17:13;;;;;;;11.20;2.97;;;;;;;19.74;68.35;101907.19;5038821;28;20029;-79
2023/07/10 02:19:38;;;;;;;6.53;3.03;;;;;;;19.61;69.22;101908.88;5022409;28;20020;-79
2023/07/10 02:22:04;;;;;;;8.80;2.42;;;;;;;19.60;69.43;101915.22;5027275;28;20026;-79
2023/07/10 02:24:29;;;;;;;7.18;2.22;;;;;;;19.59;69.43;101916.13;5026805;28;20034;-79
2023/07/10 02:26:54;;;;;;;14.70;3.22;;;;;;;19.64;69.38;101921.25;5017406;28;20037;-79
2023/07/10 02:29:19;;;;;;;10.73;2.92;;;;;;;19.75;69.02;101925.00;5018036;28;20431;-79
2023/07/10 02:31:45;;;;;;;10.57;2.90;;;;;;;19.83;68.45;101927.22;5024785;28;20032;-79
2023/07/10 02:34:10;;;;;;;7.68;3.58;;;;;;;19.76;68.95;101933.91;5024374;28;20530;-79
2023/07/10 02:36:35;;;;;;;6.47;3.67;;;;;;;19.72;68.80;101935.03;5032806;28;20033;-79
2023/07/10 02:39:01;;;;;;;8.52;3.92;;;;;;;19.73;68.79;101942.16;5021754;28;20021;-79
2023/07/10 02:41:26;;;;;;;7.03;3.30;;;;;;;19.67;69.24;101943.38;5023456;28;20042;-79
2023/07/10 02:43:52;;;;;;;6.07;3.28;;;;;;;19.64;68.99;101937.34;5021073;28;20025;-79
2023/07/10 02:46:17;;;;;;;5.70;3.50;;;;;;;19.64;68.86;101932.84;5011117;28;20032;-79
2023/07/10 02:48:42;;;;;;;8.25;3.58;;;;;;;19.71;69.33;101939.56;5010322;28;20568;-79
2023/07/10 02:51:08;;;;;;;7.40;3.60;;;;;;;19.76;69.62;101941.97;5021308;28;20472;-79
2023/07/10 02:53:33;;;;;;;7.88;3.63;;;;;;;19.81;68.11;101939.84;5023324;28;20034;-79
2023/07/10 02:55:58;;;;;;;7.53;3.72;;;;;;;19.86;68.28;101943.13;5013518;28;20514;-79
2023/07/10 02:58:24;;;;;;;5.38;3.20;;;;;;;19.90;68.67;101933.91;5016734;28;20075;-79
2023/07/10 03:00:57;;;;;;;6.63;3.38;;;;;;;19.94;67.74;101927.41;5012130;28;20079;-79
2023/07/10 03:03:24;;;;;;;5.97;3.22;;;;;;;19.85;68.68;101950.31;5015644;28;20034;-79
2023/07/10 03:05:57;;;;;;;6.70;3.50;;;;;;;19.90;68.41;101952.69;5009212;28;20048;-79
2023/07/10 03:08:23;;;;;;;7.65;3.78;;;;;;;19.76;68.29;101953.56;5024403;28;20033;-79
2023/07/10 03:10:48;;;;;;;8.07;3.22;;;;;;;19.71;69.50;101950.28;5029907;28;20068;-79
2023/07/10 03:13:13;;;;;;;6.32;3.47;;;;;;;19.74;68.67;101950.09;5021300;28;20377;-79
2023/07/10 03:15:39;;;;;;;6.30;3.65;;;;;;;19.77;68.62;101952.63;5013106;28;20405;-79
2023/07/10 03:18:04;;;;;;;7.75;3.85;;;;;;;19.74;68.61;101952.78;5020236;28;20032;-79
2023/07/10 03:20:29;;;;;;;7.30;3.47;;;;;;;19.70;68.58;101961.97;5017738;28;20052;-79
2023/07/10 03:22:54;;;;;;;6.75;3.45;;;;;;;19.67;68.73;101958.63;5026012;28;20119;-79
2023/07/10 03:25:20;;;;;;;6.07;3.67;;;;;;;19.57;69.15;101958.28;5023347;28;20037;-79
2023/07/10 03:27:48;;;;;;;9.70;3.92;;;;;;;19.51;69.41;101969.38;5024409;28;20025;-79
2023/07/10 03:30:14;;;;;;;6.85;3.65;;;;;;;19.45;69.37;101975.13;5023038;28;20038;-79
2023/07/10 03:32:39;;;;;;;8.63;4.13;;;;;;;19.51;69.71;101980.13;5029181;28;20428;-79
2023/07/10 03:35:05;;;;;;;6.78;3.83;;;;;;;19.52;69.12;101976.47;5019290;28;20155;-79
2023/07/10 03:37:30;;;;;;;8.57;3.80;;;;;;;19.54;69.16;101978.13;5020714;28;20025;-79
2023/07/10 03:39:55;;;;;;;6.78;4.55;;;;;;;19.46;69.86;101966.13;5023205;28;20488;-79
2023/07/10 03:42:20;;;;;;;9.25;4.75;;;;;;;19.51;69.38;101977.44;5019825;28;20090;-79
2023/07/10 03:44:46;;;;;;;6.78;4.53;;;;;;;19.50;69.99;101978.38;5028686;28;20026;-79
2023/07/10 03:47:11;;;;;;;5.72;4.70;;;;;;;19.34;71.09;101976.59;5029843;28;20071;-78
2023/07/10 03:49:36;;;;;;;7.63;4.50;;;;;;;19.32;70.10;101970.47;5018692;28;20536;-79
2023/07/10 03:52:04;;;;;;;9.27;4.70;;;;;;;19.36;70.11;101981.88;5023229;28;20025;-79
2023/07/10 03:54:32;;;;;;;8.15;5.07;;;;;;;19.31;70.24;101968.75;5025479;28;20507;-79
2023/07/10 03:56:57;;;;;;;9.48;6.03;;;;;;;19.23;71.38;101967.47;5034022;28;20031;-79
2023/07/10 03:59:22;;;;;;;8.80;6.15;;;;;;;19.14;71.58;101987.63;5018054;28;20038;-79
2023/07/10 04:01:48;;;;;;;8.38;5.75;;;;;;;18.86;72.27;101983.84;5017253;28;20030;-79
2023/07/10 04:04:13;;;;;;;10.75;5.53;;;;;;;18.71;72.86;101987.41;5027605;28;20032;-79
2023/07/10 04:06:38;;;;;;;8.57;5.80;;;;;;;18.78;72.42;101993.28;5021832;28;20022;-79
2023/07/10 04:09:03;;;;;;;11.32;5.55;;;;;;;18.88;72.35;101997.16;5027828;28;20026;-79
2023/07/10 04:11:29;;;;;;;10.68;6.15;;;;;;;18.96;72.32;102002.09;5032749;28;20060;-79
2023/07/10 04:13:54;;;;;;;9.10;6.75;;;;;;;18.96;72.52;101996.72;5028635;28;20080;-79
2023/07/10 04:16:26;;;;;;;9.70;7.47;;;;;;;19.00;71.97;102000.97;5038930;28;20021;-79
2023/07/10 04:18:52;;;;;;;11.43;8.10;;;;;;;19.07;72.41;102013.03;5023225;28;20030;-79
2023/07/10 04:21:23;;;;;;;9.45;8.07;;;;;;;19.15;71.65;102004.56;5037023;28;20079;-79
2023/07/10 04:23:49;;;;;;;12.43;8.25;;;;;;;19.18;72.13;102009.78;5026988;28;20029;-79
2023/07/10 04:26:21;;;;;;;11.23;7.20;;;;;;;19.19;71.73;101998.94;5021929;28;20699;-79
2023/07/10 04:28:48;;;;;;;12.73;7.63;;;;;;;19.17;72.06;101992.81;5024857;28;20036;-79
2023/07/10 04:31:14;;;;;;;12.02;7.70;;;;;;;19.20;72.12;101997.13;5018422;28;20031;-79
2023/07/10 04:33:40;;;;;;;9.80;7.30;;;;;;;19.17;71.36;102005.38;5028897;28;20378;-79
2023/07/10 04:36:05;;;;;;;11.55;7.90;;;;;;;19.23;71.25;101995.16;5030461;28;20028;-79
2023/07/10 04:38:31;;;;;;;11.35;8.25;;;;;;;19.29;71.52;102001.97;5019294;28;20068;-79
2023/07/10 04:41:02;;;;;;;13.88;8.40;;;;;;;19.36;71.45;102004.22;5024686;28;20118;-79
2023/07/10 04:43:30;;;;;;;10.82;8.32;;;;;;;19.42;70.77;102000.28;5022952;28;20025;-78
2023/07/10 04:45:57;;;;;;;12.90;7.38;;;;;;;19.46;70.42;102006.34;5020052;28;20030;-79
2023/07/10 04:48:23;;;;;;;10.63;7.32;;;;;;;19.51;70.37;102002.44;5023251;28;20026;-78
2023/07/10 04:50:51;;;;;;;12.48;7.75;;;;;;;19.53;70.85;102010.38;5015294;28;20025;-78
2023/07/10 04:53:18;;;;;;;9.73;7.20;;;;;;;19.61;70.10;102010.81;5020442;28;20488;-78
2023/07/10 04:55:44;;;;;;;11.82;6.65;;;;;;;19.61;70.12;102010.81;5017512;28;20045;-78
2023/07/10 04:58:10;;;;;;;10.52;7.28;;;;;;;19.53;70.41;102011.25;5014921;28;20021;-79
2023/07/10 05:00:35;;;;;;;11.32;7.75;;;;;;;19.52;70.50;102016.69;5016089;28;20025;-78
2023/07/10 05:03:04;;;;;;;10.07;7.03;;;;;;;19.61;70.74;102019.75;5020285;28;20038;-79
2023/07/10 05:05:30;;;;;;;12.70;8.15;;;;;;;19.63;70.51;102022.31;5015167;28;20104;-79
2023/07/10 05:07:55;;;;;;;15.40;8.57;;;;;;;19.67;70.32;102020.31;5026944;28;20120;-78
2023/07/10 05:10:21;;;;;;;12.65;8.10;;;;;;;19.65;70.70;102027.63;5036043;28;20033;-78
2023/07/10 05:12:46;;;;;;;11.40;8.73;;;;;;;19.65;71.37;102019.56;5023115;28;20041;-79
2023/07/10 05:15:12;;;;;;;14.93;8.48;;;;;;;19.67;71.24;102029.22;5019143;28;20555;-79
2023/07/10 05:17:37;;;;;;;15.38;10.02;;;;;;;19.49;71.34;102023.13;5029474;28;20032;-79
2023/07/10 05:20:03;;;;;;;12.38;8.95;;;;;;;19.49;71.79;102023.13;5027980;28;20381;-78
2023/07/10 05:22:28;;;;;;;13.73;9.55;;;;;;;19.53;72.26;102026.47;5034333;28;20059;-79
2023/07/10 05:24:54;;;;;;;11.52;9.10;;;;;;;19.49;72.29;102032.97;5027273;28;20024;-79
2023/07/10 05:27:19;;;;;;;14.80;9.55;;;;;;;19.57;71.34;102041.44;5039960;28;20041;-79
2023/07/10 05:29:44;;;;;;;13.05;10.15;;;;;;;19.59;71.96;102039.53;5027805;28;21218;-79
2023/07/10 05:32:09;;;;;;;14.45;9.38;;;;;;;19.68;71.24;102036.34;5014623;28;20045;-79
2023/07/10 05:34:35;;;;;;;12.32;9.00;;;;;;;19.76;71.77;102036.72;5022936;28;20036;-79
2023/07/10 05:37:00;;;;;;;13.05;8.77;;;;;;;19.82;70.96;102039.06;5025277;28;20021;-79
2023/07/10 05:39:29;;;;;;;14.02;9.18;;;;;;;19.81;72.07;102034.63;5019212;28;20437;-79
2023/07/10 05:41:55;;;;;;;11.60;8.20;;;;;;;19.88;71.21;102037.84;5019936;28;20378;-79
2023/07/10 05:44:20;;;;;;;12.65;8.52;;;;;;;19.94;70.80;102028.53;5013976;28;20110;-78
2023/07/10 05:46:45;;;;;;;13.52;8.63;;;;;;;19.94;71.08;102026.72;5018518;28;20029;-79
2023/07/10 05:49:10;;;;;;;13.88;8.48;;;;;;;19.99;71.00;102029.97;5027126;28;20051;-79
2023/07/10 05:51:36;;;;;;;13.35;8.30;;;;;;;20.01;70.35;102030.78;5024342;28;20400;-79
2023/07/10 05:54:02;;;;;;;12.20;7.78;;;;;;;20.07;70.41;102032.22;5019821;28;20033;-79
2023/07/10 05:56:27;;;;;;;14.10;9.00;;;;;;;20.07;70.40;102024.16;5020716;28;21508;-79
2023/07/10 05:58:52;;;;;;;12.00;8.52;;;;;;;20.11;69.94;102029.25;5015428;28;20032;-79
2023/07/10 06:01:18;;;;;;;13.73;8.60;;;;;;;20.00;70.64;102029.03;5026773;28;20035;-79
2023/07/10 06:03:44;;;;;;;11.75;7.95;;;;;;;20.06;69.91;102030.50;5014221;28;20407;-79
2023/07/10 06:06:09;;;;;;;9.68;6.85;;;;;;;20.13;70.11;102031.81;5029784;28;20560;-79
2023/07/10 06:08:36;;;;;;;14.95;7.03;;;;;;;20.19;69.56;102030.56;5033220;28;20128;-79
2023/07/10 06:11:02;;;;;;;12.15;8.13;;;;;;;20.16;70.05;102022.72;5014622;28;20496;-79
2023/07/10 06:13:27;;;;;;;13.32;7.03;;;;;;;20.21;69.46;102037.59;5019080;28;20524;-78
2023/07/10 06:15:55;;;;;;;11.73;7.20;;;;;;;20.29;69.46;102040.69;5015036;28;20049;-78
2023/07/10 06:18:20;;;;;;;12.98;7.97;;;;;;;20.32;69.97;102035.09;5024450;28;20192;-78
2023/07/10 06:20:53;;;;;;;11.35;7.03;;;;;;;20.43;69.07;102033.59;5013717;28;20173;-79
2023/07/10 06:23:20;;;;;;;13.75;6.68;;;;;;;20.48;68.57;102043.13;5019686;28;20029;-79
2023/07/10 06:25:46;;;;;;;9.27;7.05;;;;;;;20.59;68.13;102050.50;5014287;28;20443;-79
2023/07/10 06:28:12;;;;;;;11.00;6.43;;;;;;;20.64;67.45;102051.91;5018378;28;20033;-79
2023/07/10 06:30:41;;;;;;;9.95;6.45;;;;;;;20.75;66.93;102048.56;5027752;28;20021;-79
2023/07/10 06:33:07;;;;;;;9.90;6.10;;;;;;;20.87;65.73;102050.47;5021766;28;20040;-79
2023/07/10 06:35:33;;;;;;;9.60;5.80;;;;;;;20.98;64.96;102062.34;5015360;28;20101;-79
2023/07/10 06:37:58;;;;;;;8.90;5.38;;;;;;;21.05;64.69;102056.47;5015139;28;20033;-79
2023/07/10 06:40:23;;;;;;;11.88;6.22;;;;;;;21.09;63.90;102057.16;5035387;28;20393;-79
2023/07/10 06:42:49;;;;;;;8.77;5.18;;;;;;;21.14;63.95;102068.47;5022614;28;20041;-79
2023/07/10 06:45:14;;;;;;;9.98;5.55;;;;;;;21.20;63.17;102067.19;5026539;28;21101;-79
2023/07/10 06:47:42;;;;;;;8.10;5.65;;;;;;;21.35;62.83;102071.59;5017452;28;20022;-79
2023/07/10 06:50:10;;;;;;;12.50;5.72;;;;;;;21.39;61.93;102065.91;5023511;28;20060;-79
2023/07/10 06:52:40;;;;;;;10.30;4.97;;;;;;;21.51;62.09;102060.69;5018428;28;20105;-79
2023/07/10 06:55:07;;;;;;;14.57;6.05;;;;;;;21.51;62.37;102060.69;5029264;28;20459;-79
2023/07/10 06:57:34;;;;;;;10.60;5.18;;;;;;;21.62;61.88;102063.50;5016904;28;20028;-79
2023/07/10 06:59:59;;;;;;;9.35;5.00;;;;;;;21.60;60.09;102062.78;5019750;28;20053;-79
2023/07/10 07:02:24;;;;;;;11.15;4.32;;;;;;;21.65;61.35;102068.69;5023560;28;20059;-78
2023/07/10 07:04:50;;;;;;;11.80;5.10;;;;;;;21.53;61.44;102069.50;5023619;28;20470;-78
2023/07/10 07:07:15;;;;;;;10.40;4.78;;;;;;;21.68;60.62;102068.47;5025457;28;20029;-78
2023/07/10 07:09:40;;;;;;;9.68;5.20;;;;;;;21.72;60.35;102069.13;5018671;28;20053;-78
2023/07/10 07:12:06;;;;;;;8.00;4.75;;;;;;;21.76;60.78;102052.69;5021303;28;20076;-78
2023/07/10 07:14:32;;;;;;;9.50;4.85;;;;;;;21.99;60.38;102059.19;5017139;28;20988;-78
2023/07/10 07:16:57;;;;;;;10.80;5.10;;;;;;;22.09;60.58;102062.09;5015001;28;20120;-78
2023/07/10 07:19:22;;;;;;;10.35;5.15;;;;;;;22.31;59.57;102056.97;5023384;28;20028;-78
2023/07/10 07:21:48;;;;;;;10.30;4.88;;;;;;;22.23;59.96;102062.03;5036916;28;20041;-78
2023/07/10 07:24:13;;;;;;;11.68;4.60;;;;;;;22.32;59.12;102064.06;5022759;28;20203;-78
2023/07/10 07:26:38;;;;;;;10.73;5.00;;;;;;;22.40;57.56;102067.09;5020578;28;20448;-79
2023/07/10 07:29:04;;;;;;;10.45;4.03;;;;;;;22.56;59.54;102071.41;5026310;28;20033;-78
2023/07/10 07:31:29;;;;;;;10.60;3.72;;;;;;;22.49;57.24;102070.97;5028343;28;20139;-78
2023/07/10 07:33:57;;;;;;;9.00;3.60;;;;;;;22.64;58.09;102079.81;5016651;28;20029;-78
2023/07/10 07:36:22;;;;;;;9.55;4.15;;;;;;;22.92;55.93;102079.56;5030724;28;20083;-78
2023/07/10 07:38:48;;;;;;;7.47;4.15;;;;;;;23.30;55.19;102085.81;5026786;28;20413;-78
2023/07/10 07:41:13;;;;;;;7.13;3.60;;;;;;;23.82;53.36;102088.19;5024460;28;20053;-78
2023/07/10 07:43:39;;;;;;;6.47;3.78;;;;;;;24.43;52.52;102083.47;5028010;28;20091;-78
2023/07/10 07:46:04;;;;;;;5.80;3.60;;;;;;;24.93;51.39;102089.34;5025761;28;20032;-78
2023/07/10 07:48:29;;;;;;;7.63;3.75;;;;;;;25.37;49.49;102075.91;5034091;28;20025;-78
2023/07/10 07:51:04;;;;;;;7.03;3.58;;;;;;;25.83;49.04;102083.72;5041402;28;20041;-78
2023/07/10 07:53:34;;;;;;;11.15;4.50;;;;;;;26.08;46.94;102087.06;5032189;28;20469;-78
2023/07/10 07:56:00;;;;;;;7.22;3.70;;;;;;;26.06;46.60;102091.75;5024488;28;20116;-78
2023/07/10 07:58:25;;;;;;;9.45;3.78;;;;;;;26.57;46.27;102071.94;5040362;28;20437;-78
2023/07/10 08:00:51;;;;;;;6.32;3.30;;;;;;;27.01;44.80;102076.13;5020335;28;20037;-80
2023/07/10 08:03:16;;;;;;;6.15;3.80;;;;;;;27.41;43.51;102077.94;5018539;28;20014;-77
2023/07/10 08:05:41;;;;;;;9.52;3.40;;;;;;;27.44;42.36;102075.78;5036354;28;20033;-78
2023/07/10 08:08:10;;;;;;;10.10;3.10;;;;;;;27.46;43.59;102064.78;5028325;28;20043;-78
2023/07/10 08:10:39;;;;;;;7.00;2.78;;;;;;;27.63;41.78;102069.50;5028396;28;20405;-78
2023/07/10 08:13:05;;;;;;;7.53;3.30;;;;;;;27.55;42.90;102063.06;5026447;28;20357;-78
2023/07/10 08:15:31;;;;;;;6.43;2.97;;;;;;;27.75;43.03;102056.69;5026065;28;20035;-78
2023/07/10 08:17:57;;;;;;;7.22;2.90;;;;;;;28.44;41.63;102056.38;5027493;28;20029;-78
2023/07/10 08:20:22;;;;;;;7.80;3.00;;;;;;;28.50;40.38;102065.00;5023970;28;20080;-78
2023/07/10 08:22:47;;;;;;;5.57;2.60;;;;;;;28.76;41.16;102065.16;5029018;28;20040;-78
2023/07/10 08:25:13;;;;;;;4.22;2.38;;;;;;;29.26;39.92;102059.28;5026288;28;20282;-78
2023/07/10 08:27:38;;;;;;;6.25;2.67;;;;;;;29.47;37.22;102062.56;5027199;28;20033;-78
2023/07/10 08:30:04;;;;;;;7.65;2.58;;;;;;;29.76;36.83;102065.09;5029486;28;20476;-78
2023/07/10 08:32:30;;;;;;;4.93;2.22;;;;;;;30.21;36.08;102064.06;5019029;28;20033;-78
2023/07/10 08:34:55;;;;;;;7.57;2.30;;;;;;;30.05;38.49;102058.50;5018855;28;20080;-79
2023/07/10 08:37:20;;;;;;;5.47;2.57;;;;;;;30.02;37.42;102061.53;5026539;28;20021;-80
2023/07/10 08:39:45;;;;;;;6.07;2.33;;;;;;;30.06;36.11;102065.66;5027318;28;20648;-79
2023/07/10 08:42:20;;;;;;;6.50;2.50;;;;;;;29.61;37.70;102066.63;5030857;28;20280;-80
2023/07/10 08:44:49;;;;;;;5.95;2.03;;;;;;;29.88;36.21;102061.06;5020290;28;20021;-78
2023/07/10 08:47:19;;;;;;;7.70;2.25;;;;;;;30.32;37.02;102063.81;5021426;28;20028;-78
2023/07/10 08:50:06;;;;;;;9.45;2.80;;;;;;;30.54;36.26;102065.09;5026968;28;20061;-78
2023/07/10 08:52:41;;;;;;;7.97;2.53;;;;;;;30.65;34.46;102062.13;5027596;28;20507;-78
2023/07/10 08:55:27;;;;;;;7.43;2.17;;;;;;;30.59;36.46;102061.88;5028731;28;20099;-78
2023/07/10 08:57:57;;;;;;;9.70;2.40;;;;;;;30.26;36.57;102058.13;5016622;28;20032;-78
2023/07/10 09:00:26;;;;;;;6.85;2.28;;;;;;;30.41;34.80;102060.13;5016048;28;20362;-78
2023/07/10 09:02:57;;;;;;;7.32;2.55;;;;;;;30.33;34.80;102060.06;5025889;28;20083;-78
2023/07/10 09:05:26;;;;;;;5.28;1.85;;;;;;;30.32;34.39;102066.53;5031196;28;20571;-78
2023/07/10 09:07:54;;;;;;;7.50;2.30;;;;;;;30.29;33.56;102072.31;5017411;28;20037;-78
2023/07/10 09:10:24;;;;;;;5.47;1.45;;;;;;;30.27;34.09;102077.09;5021800;28;20028;-78
2023/07/10 09:12:52;;;;;;;4.65;1.45;;;;;;;29.76;34.62;102077.88;5014419;28;20124;-78
2023/07/10 09:15:25;;;;;;;5.45;1.75;;;;;;;29.69;34.98;102083.06;5010213;28;20052;-77
2023/07/10 09:18:00;;;;;;;6.75;1.70;;;;;;;28.95;35.90;102071.38;5011694;28;20163;-78
2023/07/10 09:20:25;;;;;;;6.25;1.75;;;;;;;28.89;36.87;102073.81;5031725;28;20100;-78
2023/07/10 09:22:59;;;;;;;4.30;1.80;;;;;;;28.82;37.23;102065.41;5028961;28;20152;-78
2023/07/10 09:25:26;;;;;;;5.13;1.60;;;;;;;28.76;36.23;102066.00;5029772;28;20029;-78
2023/07/10 09:27:51;;;;;;;6.22;1.90;;;;;;;28.75;36.62;102071.59;5026719;28;20434;-78
2023/07/10 09:30:38;;;;;;;6.47;2.00;;;;;;;28.54;37.95;102071.81;5019494;28;20029;-78
2023/07/10 09:33:05;;;;;;;5.72;1.88;;;;;;;28.64;37.63;102072.66;5017845;28;20032;-78
2023/07/10 09:35:35;;;;;;;7.53;2.13;;;;;;;28.59;36.95;102067.66;5020200;28;20025;-78
2023/07/10 09:38:01;;;;;;;4.75;1.80;;;;;;;28.73;37.78;102063.59;5029622;28;20021;-78
2023/07/10 09:40:38;;;;;;;5.47;1.25;;;;;;;28.89;36.19;102071.94;5033783;28;20072;-78
2023/07/10 09:43:24;;;;;;;6.47;1.75;;;;;;;29.18;37.42;102063.63;5019650;28;20083;-78
2023/07/10 09:45:57;;;;;;;4.55;1.50;;;;;;;29.46;34.73;102064.44;5023722;28;20084;-78
2023/07/10 09:48:35;;;;;;;6.03;1.98;;;;;;;29.71;35.03;102072.88;5032625;28;20082;-78
2023/07/10 09:51:03;;;;;;;6.15;2.00;;;;;;;29.63;35.17;102070.09;5021369;28;20022;-77
2023/07/10 09:53:36;;;;;;;6.82;1.77;;;;;;;29.59;34.41;102066.81;5016157;28;20112;-78
2023/07/10 09:56:01;;;;;;;5.70;1.80;;;;;;;29.41;33.87;102069.50;5024301;28;20470;-78
2023/07/10 09:58:27;;;;;;;5.38;2.15;;;;;;;29.47;33.82;102073.44;5013996;28;20175;-78
2023/07/10 10:00:52;;;;;;;5.40;1.70;;;;;;;29.65;33.96;102070.75;5015646;28;20064;-78
2023/07/10 10:03:20;;;;;;;5.68;1.70;;;;;;;29.92;34.73;102076.09;5025568;28;20023;-78
2023/07/10 10:05:56;;;;;;;7.40;2.35;;;;;;;29.61;34.33;102072.09;5043149;28;20042;-78
2023/07/10 10:08:42;;;;;;;6.90;1.83;;;;;;;29.77;33.93;102066.78;5030786;28;20057;-78
2023/07/10 10:11:10;;;;;;;5.35;1.65;;;;;;;29.89;34.29;102057.38;5021145;28;20030;-78
2023/07/10 10:13:41;;;;;;;3.83;1.70;;;;;;;29.97;33.52;102054.66;5019435;28;20029;-79
2023/07/10 10:16:16;;;;;;;5.95;1.40;;;;;;;30.32;34.16;102054.78;5013027;28;20025;-78
2023/07/10 10:18:47;;;;;;;3.38;1.50;;;;;;;29.95;33.51;102054.00;5020109;28;20079;-78
2023/07/10 10:21:16;;;;;;;5.63;1.90;;;;;;;29.85;33.36;102060.56;5035241;28;20131;-78
2023/07/10 10:23:45;;;;;;;4.72;1.88;;;;;;;30.15;34.66;102059.28;5025330;28;20034;-78
2023/07/10 10:26:27;;;;;;;7.18;1.50;;;;;;;30.55;34.15;102061.38;5030869;28;20227;-78
2023/07/10 10:29:09;;;;;;;4.53;1.75;;;;;;;30.76;32.64;102060.13;5016876;28;20121;-78
2023/07/10 10:31:54;;;;;;;;;;;;;;;30.74;33.55;102050.25;5018913;28;20038;-78
2023/07/10 10:34:19;;;;;;;6.90;2.00;;;;;;;30.35;34.34;102060.75;5025001;28;19913;-78
2023/07/10 10:36:44;;;;;;;6.73;2.20;;;;;;;30.11;33.05;102055.97;5025516;28;20381;-78
2023/07/10 10:39:21;;;;;;;4.30;1.70;;;;;;;30.08;34.32;102055.41;5031377;28;20063;-78
2023/07/10 10:41:55;;;;;;;4.82;1.70;;;;;;;30.34;34.69;102048.13;5015103;28;20048;-80
2023/07/10 10:44:39;;;;;;;5.88;1.73;;;;;;;30.53;34.55;102062.56;5015568;28;20029;-80
2023/07/10 10:47:23;;;;;;;6.72;1.80;;;;;;;30.45;33.69;102064.25;5048097;28;20445;-78
2023/07/10 10:49:57;;;;;;;5.70;1.60;;;;;;;30.74;32.94;102055.69;5023485;28;20031;-78
2023/07/10 10:52:33;;;;;;;5.78;1.80;;;;;;;30.99;32.62;102050.31;5027468;28;20618;-78
2023/07/10 10:55:10;;;;;;;8.05;1.90;;;;;;;30.92;32.37;102055.59;5023549;28;20025;-79
2023/07/10 10:57:55;;;;;;;5.70;1.88;;;;;;;30.85;33.80;102062.72;5025448;28;20488;-79
2023/07/10 11:00:34;;;;;;;4.07;1.52;;;;;;;31.04;32.79;102063.47;5021628;28;20021;-80
2023/07/10 11:03:13;;;;;;;4.00;1.60;;;;;;;31.23;31.43;102071.38;5018828;28;20057;-78
2023/07/10 11:05:49;;;;;;;5.85;1.92;;;;;;;31.42;31.09;102072.97;5031505;28;20028;-80
2023/07/10 11:08:25;;;;;;;4.88;1.55;;;;;;;31.62;31.22;102077.13;5046685;28;20057;-79
2023/07/10 11:10:53;;;;;;;5.88;1.80;;;;;;;32.16;30.14;102069.25;5026280;28;20039;-78
2023/07/10 11:13:25;;;;;;;4.05;1.58;;;;;;;31.28;30.28;102070.91;5021306;28;20098;-78
2023/07/10 11:15:51;;;;;;;6.18;1.40;;;;;;;30.88;32.08;102067.88;5019931;28;20065;-78
2023/07/10 11:18:17;;;;;;;4.05;1.70;;;;;;;31.36;30.56;102068.19;5017736;28;20595;-78
2023/07/10 11:20:43;;;;;;;8.88;2.30;;;;;;;31.24;30.02;102073.06;5028441;28;20587;-78
2023/07/10 11:23:35;;;;;;;4.28;1.70;;;;;;;31.55;31.36;102067.88;5028375;28;20032;-78
2023/07/10 11:26:07;;;;;;;4.22;1.70;;;;;;;31.49;30.84;102060.34;5017414;28;20029;-80
2023/07/10 11:28:32;;;;;;;5.78;1.60;;;;;;;31.86;30.21;102051.69;5020896;28;20485;-78